Terminal Aerodrome Forecast
Issued by NWS

Home | Current Version | Previous Version | Text Only | Print | Product List | Glossary On
Versions: 1 2 3 4 5 6 7 8 9 10 11 12 13 14 15 16 17 18 19 20
000
FTUS41 KGYX 270955 AAB
TAFHIE
TAF AMD
KHIE 270955Z 2710/2806 00000KT 6SM HZ BKN100 WS010/23030KT
      TEMPO 2710/2711 1 1/2SM SHRA BR OVC040
     FM271200 23005KT P6SM SCT050 BKN100 WS010/23030KT
     FM271800 21008G15KT P6SM OVC100 PROB30 2719/2723 4SM TS
      BKN050CB
     FM280000 23004KT 5SM BR SCT050 BKN100=

USA.gov is the U.S. government's official web portal to all federal, state and local government web resources and services.